Prague, Oklahoma
Current Conditions -  °F | °C
As of 4:15 AM on Thursday 18 Dec 2014 (Local Time) from KCQB Reporting Station
Haze Haze  
Wind Chill: 36°   Ceiling: 100
Heat Index: 39°   Visibility: 1.5mi
Dew Point: 39°   Wind: 5mph
Humidity: 100%   Direction: 130°SE
Pressure: 30.13"   Gusts: NA
Location:  35.49°N, 96.69°W
Report Text: KCQB 181015Z AUTO 13004KT 1 1/2SM BR OVC001 04/04 A3013 RMK AO2
Loading
Personal Weather Stations






























Interactive Weather Map New forecast layout! Learn more

10-Day Weather Forecast

Advertisements
Track Severe Weather on mobile